createdAt,value
2018-01-13T00:00:29.356Z,36.10
2018-01-13T00:02:57.328Z,34.55
2018-01-13T00:05:24.841Z,33.95
2018-01-13T00:07:52.333Z,34.63
2018-01-13T00:10:19.886Z,34.60
2018-01-13T00:12:47.792Z,33.22
2018-01-13T00:15:15.775Z,32.92
2018-01-13T00:17:43.765Z,33.22
2018-01-13T00:20:11.331Z,35.65
2018-01-13T00:22:38.830Z,35.90
2018-01-13T00:25:06.311Z,31.75
2018-01-13T00:27:33.802Z,33.10
2018-01-13T00:30:01.684Z,36.00
2018-01-13T00:32:29.376Z,35.08
2018-01-13T00:34:56.877Z,33.67
2018-01-13T00:37:24.842Z,34.92
2018-01-13T00:39:52.346Z,34.65
2018-01-13T00:42:20.229Z,34.15
2018-01-13T00:44:47.730Z,34.85
2018-01-13T00:47:15.696Z,35.78
2018-01-13T00:49:43.192Z,36.53
2018-01-13T00:52:10.766Z,35.25
2018-01-13T00:54:38.346Z,38.60
2018-01-13T00:57:05.859Z,35.28
2018-01-13T00:59:33.828Z,35.30
2018-01-13T01:02:01.320Z,35.22
2018-01-13T01:04:28.812Z,33.85
2018-01-13T01:06:56.795Z,33.67
2018-01-13T01:09:24.294Z,33.50
2018-01-13T01:11:52.223Z,37.03
2018-01-13T01:14:19.714Z,35.67
2018-01-13T01:16:47.211Z,32.60
2018-01-13T01:19:14.682Z,36.28
2018-01-13T01:21:42.271Z,33.90
2018-01-13T01:24:09.776Z,33.08
2018-01-13T01:26:37.360Z,31.83
2018-01-13T01:29:04.868Z,32.05
2018-01-13T01:31:32.842Z,32.40
2018-01-13T01:34:00.340Z,34.15
2018-01-13T01:36:27.823Z,32.55
2018-01-13T01:38:55.409Z,35.03
2018-01-13T01:41:22.997Z,34.95
2018-01-13T01:43:51.100Z,32.78
2018-01-13T01:46:18.993Z,31.52
2018-01-13T01:48:46.988Z,32.20
2018-01-13T01:51:14.879Z,32.50
2018-01-13T01:53:42.750Z,32.30
2018-01-13T01:56:10.260Z,31.42
2018-01-13T01:58:38.144Z,31.05
2018-01-13T02:01:06.048Z,31.65
2018-01-13T02:03:33.937Z,32.72
2018-01-13T02:06:02.020Z,29.85
2018-01-13T02:08:29.507Z,30.95
2018-01-13T02:10:57.391Z,30.80
2018-01-13T02:13:24.936Z,28.73
2018-01-13T02:15:52.469Z,28.20
2018-01-13T02:18:20.359Z,32.10
2018-01-13T02:20:48.237Z,30.80
2018-01-13T02:23:15.755Z,28.62
2018-01-13T02:25:43.238Z,30.75
2018-01-13T02:28:11.196Z,29.37
2018-01-13T02:30:39.193Z,29.25
2018-01-13T02:33:06.674Z,30.50
2018-01-13T02:35:34.269Z,30.45
2018-01-13T02:38:01.854Z,29.75
2018-01-13T02:40:29.454Z,31.05
2018-01-13T02:42:57.328Z,32.50
2018-01-13T02:45:24.836Z,30.60
2018-01-13T02:47:52.720Z,30.33
2018-01-13T02:50:20.619Z,31.35
2018-01-13T02:52:48.588Z,30.37
2018-01-13T02:55:16.181Z,29.95
2018-01-13T02:57:43.747Z,30.80
2018-01-13T03:00:11.241Z,30.40
2018-01-13T03:02:38.746Z,30.30
2018-01-13T03:05:06.720Z,28.83
2018-01-13T03:07:34.220Z,27.40
2018-01-13T03:10:02.187Z,30.73
2018-01-13T03:12:29.775Z,28.62
2018-01-13T03:14:57.373Z,30.88
2018-01-13T03:17:24.946Z,28.67
2018-01-13T03:19:52.541Z,28.83
2018-01-13T03:22:20.125Z,30.15
2018-01-13T03:24:47.704Z,30.73
2018-01-13T03:27:15.179Z,29.27
2018-01-13T03:29:42.763Z,27.67
2018-01-13T03:32:10.247Z,29.80
2018-01-13T03:34:37.847Z,28.83
2018-01-13T03:37:05.337Z,29.15
2018-01-13T03:39:33.224Z,28.85
2018-01-13T03:42:00.733Z,27.75
2018-01-13T03:44:28.220Z,27.90
2018-01-13T03:46:55.723Z,28.48
2018-01-13T03:49:23.275Z,29.02
2018-01-13T03:51:51.165Z,28.42
2018-01-13T03:54:19.122Z,27.90
2018-01-13T03:56:46.718Z,28.60
2018-01-13T03:59:14.207Z,27.42
2018-01-13T04:01:41.782Z,27.58
2018-01-13T04:04:09.293Z,28.50
2018-01-13T04:06:37.175Z,27.25
2018-01-13T04:09:05.150Z,28.67
2018-01-13T04:11:32.636Z,28.42
2018-01-13T04:14:00.140Z,28.80
2018-01-13T04:16:28.125Z,26.00
2018-01-13T04:18:55.665Z,28.35
2018-01-13T04:21:23.192Z,26.73
2018-01-13T04:23:50.667Z,27.17
2018-01-13T04:26:18.243Z,27.42
2018-01-13T04:28:45.722Z,26.30
2018-01-13T04:31:13.228Z,26.25
2018-01-13T04:33:40.717Z,25.73
2018-01-13T04:36:08.228Z,24.08
2018-01-13T04:38:35.768Z,26.37
2018-01-13T04:41:03.293Z,25.35
2018-01-13T04:43:30.778Z,25.25
2018-01-13T04:45:58.264Z,26.75
2018-01-13T04:48:25.804Z,24.98
2018-01-13T04:50:53.296Z,25.20
2018-01-13T04:53:21.426Z,25.90
2018-01-13T04:55:48.891Z,24.17
2018-01-13T04:58:16.791Z,23.80
2018-01-13T05:00:44.280Z,22.60
2018-01-13T05:03:11.788Z,22.70
2018-01-13T05:05:39.266Z,23.33
2018-01-13T05:08:06.987Z,21.80
2018-01-13T05:10:34.580Z,21.33
2018-01-13T05:13:02.071Z,22.75
2018-01-13T05:15:29.563Z,22.08
2018-01-13T05:17:57.448Z,21.70
2018-01-13T05:20:25.036Z,20.73
2018-01-13T05:22:52.527Z,22.30
2018-01-13T05:25:20.747Z,19.23
2018-01-13T05:27:48.293Z,21.40
2018-01-13T05:30:15.790Z,20.77
2018-01-13T05:32:43.673Z,20.15
2018-01-13T05:35:11.193Z,20.90
2018-01-13T05:37:38.684Z,20.95
2018-01-13T05:40:06.215Z,19.80
2018-01-13T05:42:33.693Z,20.33
2018-01-13T05:45:01.300Z,19.70
2018-01-13T05:47:29.201Z,20.23
2018-01-13T05:49:57.084Z,19.25
2018-01-13T05:52:25.003Z,19.75
2018-01-13T05:54:53.233Z,19.02
2018-01-13T05:57:20.752Z,18.17
2018-01-13T05:59:48.247Z,18.80
2018-01-13T06:02:16.333Z,19.45
2018-01-13T06:04:43.818Z,17.60
2018-01-13T06:07:11.313Z,20.17
2018-01-13T06:09:39.216Z,17.75
2018-01-13T06:12:06.781Z,18.23
2018-01-13T06:14:34.284Z,17.52
2018-01-13T06:17:02.252Z,19.33
2018-01-13T06:19:29.831Z,18.62
2018-01-13T06:21:57.314Z,18.40
2018-01-13T06:24:24.909Z,17.20
2018-01-13T06:26:52.390Z,17.50
2018-01-13T06:29:19.905Z,18.35
2018-01-13T06:31:47.404Z,19.00
2018-01-13T06:34:14.883Z,17.73
2018-01-13T06:36:42.390Z,17.90
2018-01-13T06:39:09.881Z,17.83
2018-01-13T06:41:37.386Z,16.98
2018-01-13T06:44:04.958Z,18.15
2018-01-13T06:46:32.463Z,17.35
2018-01-13T06:49:00.042Z,17.10
2018-01-13T06:51:27.614Z,17.70
2018-01-13T06:53:55.222Z,18.33
2018-01-13T06:56:22.797Z,18.62
2018-01-13T06:58:50.280Z,17.92
2018-01-13T07:01:17.758Z,17.00
2018-01-13T07:03:45.255Z,18.40
2018-01-13T07:06:13.126Z,18.65
2018-01-13T07:08:40.623Z,18.58
2018-01-13T07:11:08.208Z,21.40
2018-01-13T07:13:35.774Z,22.48
2018-01-13T07:16:03.259Z,27.62
2018-01-13T07:18:30.777Z,24.70
2018-01-13T07:20:58.679Z,34.70
2018-01-13T07:23:26.219Z,17.80
2018-01-13T07:25:53.714Z,23.67
2018-01-13T07:28:21.382Z,21.27
2018-01-13T07:30:48.860Z,17.70
2018-01-13T07:33:16.352Z,17.67
2018-01-13T07:35:43.950Z,18.65
2018-01-13T07:38:11.432Z,18.00
2018-01-13T07:40:38.940Z,18.95
2018-01-13T07:43:06.827Z,18.48
2018-01-13T07:45:34.712Z,17.77
2018-01-13T07:48:02.695Z,18.90
2018-01-13T07:50:30.201Z,21.65
2018-01-13T07:52:58.172Z,18.60
2018-01-13T07:55:25.746Z,21.65
2018-01-13T07:57:53.241Z,17.98
2018-01-13T08:00:20.953Z,17.40
2018-01-13T08:02:48.466Z,16.75
2018-01-13T08:05:15.956Z,18.15
2018-01-13T08:07:43.470Z,19.17
2018-01-13T08:10:10.951Z,19.83
2018-01-13T08:12:38.550Z,18.85
2018-01-13T08:15:06.132Z,20.05
2018-01-13T08:17:33.640Z,20.30
2018-01-13T08:20:01.529Z,19.90
2018-01-13T08:22:29.694Z,20.58
2018-01-13T08:24:57.171Z,17.90
2018-01-13T08:27:24.656Z,17.65
2018-01-13T08:29:52.167Z,16.62
2018-01-13T08:32:20.049Z,16.10
2018-01-13T08:34:47.552Z,16.62
2018-01-13T08:37:15.056Z,16.00
2018-01-13T08:39:42.561Z,17.10
2018-01-13T08:42:10.053Z,16.37
2018-01-13T08:44:37.546Z,17.15
2018-01-13T08:47:05.040Z,17.10
2018-01-13T08:49:32.561Z,16.40
2018-01-13T08:52:00.054Z,17.05
2018-01-13T08:54:27.540Z,16.60
2018-01-13T08:56:55.040Z,16.85
2018-01-13T08:59:22.519Z,18.70
2018-01-13T09:01:50.960Z,16.75
2018-01-13T09:04:18.448Z,14.13
2018-01-13T09:06:45.942Z,13.30
2018-01-13T09:09:13.828Z,13.73
2018-01-13T09:11:41.330Z,14.95
2018-01-13T09:14:09.287Z,15.10
2018-01-13T09:16:36.880Z,15.55
2018-01-13T09:19:04.458Z,15.77
2018-01-13T09:21:31.955Z,16.90
2018-01-13T09:23:59.431Z,16.40
2018-01-13T09:26:26.956Z,17.08
2018-01-13T09:28:54.449Z,15.57
2018-01-13T09:31:21.947Z,15.30
2018-01-13T09:33:49.449Z,13.55
2018-01-13T09:36:16.961Z,12.95
2018-01-13T09:38:44.834Z,13.70
2018-01-13T09:41:12.427Z,11.50
2018-01-13T09:43:40.323Z,11.88
2018-01-13T09:46:07.824Z,11.35
2018-01-13T09:48:35.703Z,13.05
2018-01-13T09:51:03.271Z,12.40
2018-01-13T09:53:30.748Z,12.23
2018-01-13T09:55:58.253Z,12.23
2018-01-13T09:58:25.735Z,12.82
2018-01-13T10:00:53.637Z,11.20
2018-01-13T10:03:21.540Z,11.70
2018-01-13T10:05:49.045Z,11.95
2018-01-13T10:08:16.549Z,15.70
2018-01-13T10:10:44.040Z,14.75
2018-01-13T10:13:11.648Z,12.20
2018-01-13T10:15:39.167Z,11.43
2018-01-13T10:18:07.054Z,11.10
2018-01-13T10:20:34.930Z,12.43
2018-01-13T10:23:02.443Z,12.40
2018-01-13T10:25:29.941Z,11.12
2018-01-13T10:27:57.443Z,11.32
2018-01-13T10:30:24.931Z,11.90
2018-01-13T10:32:52.513Z,12.75
2018-01-13T10:35:20.005Z,13.25
2018-01-13T10:37:47.612Z,13.38
2018-01-13T10:40:15.228Z,12.98
2018-01-13T10:42:42.775Z,12.10
2018-01-13T10:45:10.268Z,11.40
2018-01-13T10:47:38.199Z,10.93
2018-01-13T10:50:05.738Z,11.80
2018-01-13T10:52:33.340Z,12.05
2018-01-13T10:55:02.058Z,12.10
2018-01-13T10:57:30.026Z,14.73
2018-01-13T10:59:57.510Z,12.93
2018-01-13T11:02:25.429Z,12.48
2018-01-13T11:04:53.316Z,13.02
2018-01-13T11:07:21.321Z,9.80
2018-01-13T11:09:49.283Z,10.02
2018-01-13T11:12:16.895Z,9.40
2018-01-13T11:14:44.456Z,9.68
2018-01-13T11:17:12.052Z,10.43
2018-01-13T11:19:39.548Z,10.85
2018-01-13T11:22:07.435Z,10.02
2018-01-13T11:24:34.940Z,9.77
2018-01-13T11:27:02.482Z,9.35
2018-01-13T11:29:29.981Z,10.18
2018-01-13T11:31:57.957Z,9.23
2018-01-13T11:34:25.528Z,10.93
2018-01-13T11:36:53.006Z,9.95
2018-01-13T11:39:20.504Z,9.93
2018-01-13T11:41:47.983Z,9.68
2018-01-13T11:44:15.479Z,9.70
2018-01-13T11:46:42.974Z,10.75
2018-01-13T11:49:10.876Z,9.82
2018-01-13T11:51:38.377Z,11.80
2018-01-13T11:54:05.921Z,10.00
2018-01-13T11:56:33.800Z,10.32
2018-01-13T11:59:01.382Z,9.35
2018-01-13T12:01:28.863Z,8.52
2018-01-13T12:03:56.479Z,8.52
2018-01-13T12:06:24.366Z,8.50
2018-01-13T12:08:51.859Z,7.78
2018-01-13T12:11:19.821Z,8.10
2018-01-13T12:13:47.315Z,9.18
2018-01-13T12:16:14.792Z,8.80
2018-01-13T12:18:42.292Z,8.52
2018-01-13T12:21:10.289Z,9.45
2018-01-13T12:23:38.209Z,7.95
2018-01-13T12:26:05.756Z,9.50
2018-01-13T12:28:33.259Z,9.52
2018-01-13T12:31:01.140Z,6.28
2018-01-13T12:33:29.027Z,9.65
2018-01-13T12:35:56.904Z,8.50
2018-01-13T12:38:24.487Z,8.88
2018-01-13T12:40:52.059Z,9.35
2018-01-13T12:43:19.646Z,11.45
2018-01-13T12:45:47.148Z,10.02
2018-01-13T12:48:14.660Z,8.68
2018-01-13T12:50:42.203Z,10.10
2018-01-13T12:53:09.714Z,11.23
2018-01-13T12:55:37.685Z,8.38
2018-01-13T12:58:05.176Z,14.77
2018-01-13T13:00:33.076Z,8.32
2018-01-13T13:03:01.047Z,8.50
2018-01-13T13:05:28.557Z,6.87
2018-01-13T13:07:56.431Z,9.85
2018-01-13T13:10:23.932Z,9.75
2018-01-13T13:12:51.805Z,8.80
2018-01-13T13:15:19.286Z,9.77
2018-01-13T13:17:46.758Z,9.45
2018-01-13T13:20:14.338Z,8.73
2018-01-13T13:22:41.815Z,8.63
2018-01-13T13:25:09.406Z,7.57
2018-01-13T13:27:36.878Z,6.10
2018-01-13T13:30:04.492Z,8.73
2018-01-13T13:32:31.984Z,8.73
2018-01-13T13:34:59.877Z,8.05
2018-01-13T13:37:28.082Z,8.75
2018-01-13T13:39:55.981Z,7.82
2018-01-13T13:42:23.862Z,8.32
2018-01-13T13:44:51.760Z,7.75
2018-01-13T13:47:19.637Z,9.38
2018-01-13T13:49:47.241Z,8.95
2018-01-13T13:52:14.730Z,9.23
2018-01-13T13:54:42.618Z,9.32
2018-01-13T13:57:10.579Z,9.43
2018-01-13T13:59:38.176Z,8.85
2018-01-13T14:02:05.675Z,9.15
2018-01-13T14:04:33.638Z,12.18
2018-01-13T14:07:01.118Z,16.23
2018-01-13T14:09:28.619Z,9.02
2018-01-13T14:11:56.190Z,9.90
2018-01-13T14:14:23.776Z,20.95
2018-01-13T14:16:51.242Z,7.70
2018-01-13T14:19:18.719Z,12.50
2018-01-13T14:21:46.224Z,10.80
2018-01-13T14:24:13.713Z,10.25
2018-01-13T14:26:41.207Z,11.82
2018-01-13T14:29:08.682Z,12.43
2018-01-13T14:31:36.264Z,14.85
2018-01-13T14:34:03.748Z,9.05
2018-01-13T14:36:31.252Z,14.48
2018-01-13T14:38:59.122Z,18.62
2018-01-13T14:41:26.650Z,11.45
2018-01-13T14:43:54.188Z,8.90
2018-01-13T14:46:21.770Z,9.73
2018-01-13T14:48:49.261Z,12.25
2018-01-13T14:51:16.844Z,13.02
2018-01-13T14:53:44.341Z,9.68
2018-01-13T14:56:12.349Z,10.32
2018-01-13T14:58:40.315Z,9.55
2018-01-13T15:01:07.810Z,8.20
2018-01-13T15:03:35.292Z,9.13
2018-01-13T15:06:03.193Z,9.75
2018-01-13T15:08:31.264Z,9.80
2018-01-13T15:10:58.773Z,10.48
2018-01-13T15:13:26.660Z,10.18
2018-01-13T15:15:54.553Z,10.73
2018-01-13T15:18:22.451Z,10.15
2018-01-13T15:20:50.432Z,9.45
2018-01-13T15:23:18.002Z,11.05
2018-01-13T15:25:45.503Z,11.90
2018-01-13T15:28:12.997Z,11.48
2018-01-13T15:30:41.201Z,11.80
2018-01-13T15:33:09.075Z,9.20
2018-01-13T15:35:36.654Z,11.10
2018-01-13T15:38:04.135Z,10.10
2018-01-13T15:40:31.710Z,9.93
2018-01-13T15:42:59.187Z,10.60
2018-01-13T15:45:26.684Z,9.50
2018-01-13T15:47:54.196Z,9.85
2018-01-13T15:50:21.756Z,9.63
2018-01-13T15:52:49.253Z,9.75
2018-01-13T15:55:17.126Z,10.20
2018-01-13T15:57:45.049Z,9.65
2018-01-13T16:00:12.531Z,9.90
2018-01-13T16:02:40.420Z,10.70
2018-01-13T16:05:08.387Z,12.07
2018-01-13T16:07:35.910Z,12.50
2018-01-13T16:10:03.405Z,11.68
2018-01-13T16:12:30.916Z,10.75
2018-01-13T16:14:58.405Z,11.12
2018-01-13T16:17:25.912Z,12.18
2018-01-13T16:19:53.386Z,11.75
2018-01-13T16:22:20.879Z,12.88
2018-01-13T16:24:48.456Z,12.70
2018-01-13T16:27:15.950Z,11.48
2018-01-13T16:29:43.833Z,13.38
2018-01-13T16:32:11.331Z,12.07
2018-01-13T16:34:39.295Z,12.35
2018-01-13T16:37:06.887Z,10.60
2018-01-13T16:39:34.362Z,11.63
2018-01-13T16:42:01.877Z,12.35
2018-01-13T16:44:29.755Z,13.68
2018-01-13T16:46:57.296Z,12.65
2018-01-13T16:49:24.808Z,13.18
2018-01-13T16:51:52.426Z,12.07
2018-01-13T16:54:20.302Z,12.98
2018-01-13T16:56:47.897Z,14.00
2018-01-13T16:59:15.867Z,11.85
2018-01-13T17:01:43.487Z,13.65
2018-01-13T17:04:11.457Z,13.43
2018-01-13T17:06:38.982Z,14.93
2018-01-13T17:09:06.495Z,11.70
2018-01-13T17:11:34.025Z,11.18
2018-01-13T17:14:01.923Z,12.65
2018-01-13T17:16:29.798Z,12.75
2018-01-13T17:18:57.336Z,12.23
2018-01-13T17:21:24.818Z,11.07
2018-01-13T17:23:52.327Z,11.73
2018-01-13T17:26:19.846Z,13.05
2018-01-13T17:28:47.793Z,11.35
2018-01-13T17:31:15.271Z,10.50
2018-01-13T17:33:42.873Z,12.93
2018-01-13T17:36:10.366Z,11.12
2018-01-13T17:38:37.973Z,9.23
2018-01-13T17:41:05.935Z,12.82
2018-01-13T17:43:33.446Z,11.00
2018-01-13T17:46:01.410Z,11.10
2018-01-13T17:48:28.961Z,10.45
2018-01-13T17:50:56.461Z,12.13
2018-01-13T17:53:24.056Z,12.37
2018-01-13T17:55:51.551Z,10.52
2018-01-13T17:58:19.051Z,12.80
2018-01-13T18:00:46.937Z,11.77
2018-01-13T18:03:14.440Z,10.20
2018-01-13T18:05:42.350Z,10.65
2018-01-13T18:08:09.945Z,11.77
2018-01-13T18:10:37.436Z,11.55
2018-01-13T18:13:04.934Z,12.88
2018-01-13T18:15:32.411Z,12.63
2018-01-13T18:17:59.920Z,11.65
2018-01-13T18:20:27.404Z,11.95
2018-01-13T18:22:54.898Z,12.85
2018-01-13T18:25:22.489Z,11.23
2018-01-13T18:27:50.063Z,13.02
2018-01-13T18:30:17.577Z,10.48
2018-01-13T18:32:45.465Z,10.75
2018-01-13T18:35:13.364Z,10.27
2018-01-13T18:37:41.250Z,10.13
2018-01-13T18:40:09.139Z,17.77
2018-01-13T18:42:37.011Z,15.00
2018-01-13T18:45:04.608Z,21.00
2018-01-13T18:47:32.197Z,22.10
2018-01-13T18:49:59.771Z,13.07
2018-01-13T18:52:27.383Z,12.00
2018-01-13T18:54:54.956Z,10.13
2018-01-13T18:57:22.846Z,11.38
2018-01-13T18:59:50.346Z,11.50
2018-01-13T19:02:18.218Z,9.95
2018-01-13T19:04:45.729Z,11.82
2018-01-13T19:07:13.225Z,12.37
2018-01-13T19:09:40.777Z,11.55
2018-01-13T19:12:08.654Z,13.35
2018-01-13T19:14:36.182Z,11.85
2018-01-13T19:17:03.681Z,11.27
2018-01-13T19:19:31.208Z,11.70
2018-01-13T19:21:58.793Z,13.10
2018-01-13T19:24:26.386Z,11.55
2018-01-13T19:26:53.969Z,13.00
2018-01-13T19:29:21.478Z,13.35
2018-01-13T19:31:48.972Z,13.88
2018-01-13T19:34:16.529Z,13.70
2018-01-13T19:36:44.422Z,14.40
2018-01-13T19:39:12.400Z,12.20
2018-01-13T19:41:39.888Z,13.80
2018-01-13T19:44:07.794Z,13.55
2018-01-13T19:46:35.768Z,11.45
2018-01-13T19:49:03.548Z,12.80
2018-01-13T19:51:31.144Z,13.18
2018-01-13T19:53:58.684Z,13.60
2018-01-13T19:56:26.209Z,13.25
2018-01-13T19:58:53.740Z,14.30
2018-01-13T20:01:21.249Z,13.80
2018-01-13T20:03:48.818Z,13.05
2018-01-13T20:06:16.315Z,14.57
2018-01-13T20:08:43.809Z,14.20
2018-01-13T20:11:11.399Z,14.48
2018-01-13T20:13:39.117Z,13.50
2018-01-13T20:16:07.083Z,15.02
2018-01-13T20:18:34.576Z,15.55
2018-01-13T20:21:02.074Z,12.68
2018-01-13T20:23:29.652Z,12.85
2018-01-13T20:25:57.223Z,14.07
2018-01-13T20:28:24.841Z,14.63
2018-01-13T20:30:52.354Z,14.02
2018-01-13T20:33:19.916Z,13.35
2018-01-13T20:35:47.414Z,14.45
2018-01-13T20:38:14.967Z,14.18
2018-01-13T20:40:42.859Z,13.55
2018-01-13T20:43:11.048Z,14.20
2018-01-13T20:45:38.510Z,13.70
2018-01-13T20:48:06.112Z,15.32
2018-01-13T20:50:33.613Z,12.40
2018-01-13T20:53:01.565Z,12.20
2018-01-13T20:55:29.069Z,14.68
2018-01-13T20:57:56.745Z,14.27
2018-01-13T21:00:24.252Z,20.33
2018-01-13T21:02:52.221Z,14.30
2018-01-13T21:05:19.724Z,19.77
2018-01-13T21:07:48.800Z,18.83
2018-01-13T21:10:16.298Z,14.40
2018-01-13T21:12:43.894Z,23.30
2018-01-13T21:15:11.488Z,21.17
2018-01-13T21:17:39.041Z,16.62
2018-01-13T21:20:06.544Z,21.42
2018-01-13T21:22:34.139Z,20.40
2018-01-13T21:25:01.615Z,13.60
2018-01-13T21:27:29.118Z,13.77
2018-01-13T21:29:56.994Z,15.52
2018-01-13T21:32:24.584Z,14.45
2018-01-13T21:34:52.158Z,14.63
2018-01-13T21:37:19.669Z,13.00
2018-01-13T21:39:47.572Z,13.88
2018-01-13T21:42:15.481Z,13.05
2018-01-13T21:44:42.977Z,13.05
2018-01-13T21:47:10.502Z,13.27
2018-01-13T21:49:38.097Z,12.65
2018-01-13T21:52:05.579Z,14.75
2018-01-13T21:54:33.165Z,13.05
2018-01-13T21:57:00.667Z,13.07
2018-01-13T21:59:28.567Z,12.30
2018-01-13T22:01:56.125Z,11.88
2018-01-13T22:04:23.699Z,12.02
2018-01-13T22:06:51.239Z,11.30
2018-01-13T22:09:18.743Z,13.27
2018-01-13T22:11:46.260Z,14.87
2018-01-13T22:14:14.244Z,13.25
2018-01-13T22:16:41.727Z,12.43
2018-01-13T22:19:09.436Z,11.48
2018-01-13T22:21:37.311Z,12.57
2018-01-13T22:24:04.783Z,12.30
2018-01-13T22:26:32.371Z,11.48
2018-01-13T22:28:59.961Z,14.00
2018-01-13T22:31:27.458Z,15.00
2018-01-13T22:33:55.344Z,13.43
2018-01-13T22:36:22.923Z,12.02
2018-01-13T22:38:50.420Z,12.98
2018-01-13T22:41:17.987Z,12.95
2018-01-13T22:43:45.503Z,13.25
2018-01-13T22:46:13.250Z,15.50
2018-01-13T22:48:40.730Z,11.30
2018-01-13T22:51:08.213Z,12.48
2018-01-13T22:53:35.808Z,13.60
2018-01-13T22:56:03.392Z,13.02
2018-01-13T22:58:30.975Z,12.45
2018-01-13T23:00:58.563Z,12.50
2018-01-13T23:03:26.059Z,11.77
2018-01-13T23:05:53.556Z,12.15
2018-01-13T23:08:21.456Z,12.88
2018-01-13T23:10:49.017Z,13.60
2018-01-13T23:13:16.600Z,13.68
2018-01-13T23:15:44.097Z,13.30
2018-01-13T23:18:12.187Z,12.15
2018-01-13T23:20:40.074Z,12.43
2018-01-13T23:23:07.569Z,12.88
2018-01-13T23:25:35.459Z,13.48
2018-01-13T23:28:03.440Z,14.00
2018-01-13T23:30:30.948Z,13.88
2018-01-13T23:32:58.444Z,16.95
2018-01-13T23:35:25.952Z,15.10
2018-01-13T23:37:53.426Z,16.10
2018-01-13T23:40:20.957Z,15.15
2018-01-13T23:42:48.435Z,13.05
2018-01-13T23:45:16.019Z,14.55
2018-01-13T23:47:43.512Z,14.48
2018-01-13T23:50:11.591Z,13.30
2018-01-13T23:52:39.075Z,12.48
2018-01-13T23:55:06.560Z,12.88
2018-01-13T23:57:34.144Z,13.10
